createdAt,value
2023-03-21T00:03:03.706Z,100702.48
2023-03-21T00:06:11.300Z,100700.41
2023-03-21T00:09:16.441Z,100693.27
2023-03-21T00:12:23.012Z,100695.64
2023-03-21T00:15:39.278Z,100684.69
2023-03-21T00:18:36.951Z,100689.85
2023-03-21T00:21:59.619Z,100690.20
2023-03-21T00:24:53.004Z,100689.21
2023-03-21T00:28:08.039Z,100688.11
2023-03-21T00:31:05.786Z,100690.56
2023-03-21T00:37:20.674Z,100684.81
2023-03-21T00:40:35.044Z,100676.80
2023-03-21T00:43:37.016Z,100679.50
2023-03-21T00:46:49.394Z,100680.37
2023-03-21T00:49:51.522Z,100669.42
2023-03-21T00:52:59.397Z,100665.12
2023-03-21T00:56:05.843Z,100667.96
2023-03-21T00:59:11.328Z,100660.95
2023-03-21T01:02:19.724Z,100662.92
2023-03-21T01:05:28.819Z,100657.26
2023-03-21T01:08:50.562Z,100650.86
2023-03-21T01:11:44.825Z,100651.83
2023-03-21T01:14:50.058Z,100652.06
2023-03-21T01:17:56.387Z,100636.70
2023-03-21T01:21:03.094Z,100635.31
2023-03-21T01:24:09.508Z,100632.27
2023-03-21T01:27:17.521Z,100637.03
2023-03-21T01:30:28.654Z,100626.46
2023-03-21T01:33:34.912Z,100629.04
2023-03-21T01:36:41.483Z,100624.72
2023-03-21T01:39:49.345Z,100621.40
2023-03-21T01:42:56.221Z,100621.75
2023-03-21T01:47:09.812Z,100622.75
2023-03-21T01:50:19.531Z,100631.13
2023-03-21T01:53:37.366Z,100627.20
2023-03-21T01:56:47.552Z,100633.35
2023-03-21T02:00:01.729Z,100621.78
2023-03-21T02:03:35.325Z,100628.09
2023-03-21T02:06:55.302Z,100620.33
2023-03-21T02:10:06.477Z,100619.20
2023-03-21T02:13:17.778Z,100633.96
2023-03-21T02:16:58.895Z,100627.09
2023-03-21T02:20:32.751Z,100623.30
2023-03-21T02:24:02.391Z,100630.81
2023-03-21T02:27:18.962Z,100625.27
2023-03-21T02:31:00.713Z,100627.47
2023-03-21T02:34:35.632Z,100617.88
2023-03-21T02:38:00.560Z,100627.95
2023-03-21T02:41:25.408Z,100626.61
2023-03-21T02:44:45.269Z,100614.43
2023-03-21T02:48:20.306Z,100614.69
2023-03-21T02:51:17.170Z,100614.66
2023-03-21T02:54:41.867Z,100610.73
2023-03-21T02:57:42.580Z,100609.61
2023-03-21T03:00:45.326Z,100607.87
2023-03-21T03:03:55.255Z,100597.17
2023-03-21T03:07:31.434Z,100593.33
2023-03-21T03:11:04.948Z,100598.00
2023-03-21T03:14:42.014Z,100594.69
2023-03-21T03:18:02.037Z,100604.52
2023-03-21T03:21:19.864Z,100599.09
2023-03-21T03:24:41.953Z,100595.78
2023-03-21T03:27:51.377Z,100598.84
2023-03-21T03:31:08.661Z,100592.55
2023-03-21T03:34:10.298Z,100594.16
2023-03-21T03:37:18.461Z,100596.87
2023-03-21T03:40:30.613Z,100590.97
2023-03-21T03:43:58.164Z,100590.49
2023-03-21T03:47:31.985Z,100597.52
2023-03-21T03:50:52.944Z,100595.81
2023-03-21T03:54:04.996Z,100596.52
2023-03-21T03:57:11.916Z,100592.84
2023-03-21T04:00:19.936Z,100598.48
2023-03-21T04:03:25.792Z,100589.49
2023-03-21T04:06:32.987Z,100584.47
2023-03-21T04:09:44.468Z,100590.63
2023-03-21T04:12:49.153Z,100582.50
2023-03-21T04:16:07.494Z,100581.62
2023-03-21T04:19:15.046Z,100585.78
2023-03-21T04:22:20.273Z,100587.88
2023-03-21T04:25:33.321Z,100591.06
2023-03-21T04:28:36.479Z,100588.58
2023-03-21T04:31:55.403Z,100591.41
2023-03-21T04:35:02.620Z,100591.63
2023-03-21T04:38:09.246Z,100591.62
2023-03-21T04:41:15.654Z,100598.39
2023-03-21T04:44:23.174Z,100598.88
2023-03-21T04:47:30.419Z,100586.56
2023-03-21T04:50:36.563Z,100596.17
2023-03-21T04:53:44.995Z,100597.88
2023-03-21T04:56:52.574Z,100596.26
2023-03-21T04:59:59.825Z,100600.23
2023-03-21T05:03:06.651Z,100604.52
2023-03-21T05:06:11.768Z,100600.31
2023-03-21T05:09:17.090Z,100600.31
2023-03-21T05:12:23.585Z,100604.23
2023-03-21T05:15:30.560Z,100595.06
2023-03-21T05:18:36.814Z,100603.65
2023-03-21T05:21:47.612Z,100601.36
2023-03-21T05:24:58.796Z,100601.20
2023-03-21T05:28:09.510Z,100607.31
2023-03-21T05:31:16.413Z,100601.48
2023-03-21T05:34:25.680Z,100602.08
2023-03-21T05:37:34.379Z,100599.59
2023-03-21T05:40:40.349Z,100601.67
2023-03-21T05:43:46.998Z,100601.27
2023-03-21T05:46:59.317Z,100598.28
2023-03-21T05:50:21.379Z,100602.33
2023-03-21T05:53:29.939Z,100604.22
2023-03-21T05:56:36.777Z,100594.56
2023-03-21T05:59:45.437Z,100596.80
2023-03-21T06:02:51.433Z,100608.70
2023-03-21T06:06:01.059Z,100600.23
2023-03-21T06:09:10.765Z,100599.09
2023-03-21T06:12:21.850Z,100606.81
2023-03-21T06:15:44.809Z,100602.87
2023-03-21T06:18:56.236Z,100607.98
2023-03-21T06:22:06.453Z,100600.03
2023-03-21T06:25:13.967Z,100598.25
2023-03-21T06:28:21.908Z,100597.83
2023-03-21T06:31:31.963Z,100603.70
2023-03-21T06:34:39.481Z,100595.97
2023-03-21T06:37:46.836Z,100601.33
2023-03-21T06:40:54.347Z,100615.69
2023-03-21T06:44:02.453Z,100603.47
2023-03-21T06:47:12.285Z,100606.66
2023-03-21T06:50:18.819Z,100601.13
2023-03-21T06:53:26.206Z,100599.58
2023-03-21T06:56:47.057Z,100598.36
2023-03-21T06:59:56.567Z,100600.53
2023-03-21T07:03:05.214Z,100594.16
2023-03-21T07:06:12.655Z,100593.39
2023-03-21T07:09:23.620Z,100584.16
2023-03-21T07:12:32.036Z,100587.09
2023-03-21T07:15:42.538Z,100588.18
2023-03-21T07:18:49.421Z,100589.02
2023-03-21T07:21:56.138Z,100593.26
2023-03-21T07:25:05.489Z,100596.55
2023-03-21T07:28:14.896Z,100594.70
2023-03-21T07:31:21.601Z,100591.17
2023-03-21T07:34:27.460Z,100598.73
2023-03-21T07:37:38.141Z,100598.50
2023-03-21T07:40:47.914Z,100597.89
2023-03-21T07:43:56.769Z,100599.41
2023-03-21T07:47:04.169Z,100596.48
2023-03-21T07:50:12.748Z,100595.42
2023-03-21T07:53:20.025Z,100589.37
2023-03-21T07:56:26.592Z,100596.45
2023-03-21T07:59:34.415Z,100594.11
2023-03-21T08:02:40.425Z,100596.36
2023-03-21T08:05:50.712Z,100591.84
2023-03-21T08:08:58.135Z,100596.66
2023-03-21T08:12:04.642Z,100594.45
2023-03-21T08:15:11.683Z,100588.69
2023-03-21T08:18:19.885Z,100591.80
2023-03-21T08:21:28.994Z,100591.45
2023-03-21T08:24:35.472Z,100589.45
2023-03-21T08:27:42.649Z,100583.48
2023-03-21T08:30:50.563Z,100577.34
2023-03-21T08:33:57.955Z,100578.04
2023-03-21T08:37:13.789Z,100579.41
2023-03-21T08:40:38.954Z,100581.44
2023-03-21T08:44:06.016Z,100581.47
2023-03-21T08:47:20.912Z,100581.12
2023-03-21T08:50:49.580Z,100571.77
2023-03-21T08:54:08.118Z,100569.55
2023-03-21T08:57:18.571Z,100570.59
2023-03-21T09:00:29.374Z,100571.10
2023-03-21T09:03:42.345Z,100571.80
2023-03-21T09:06:52.203Z,100573.37
2023-03-21T09:10:19.138Z,100568.56
2023-03-21T09:13:11.424Z,100555.21
2023-03-21T09:16:40.525Z,100558.64
2023-03-21T09:19:47.355Z,100552.31
2023-03-21T09:22:57.626Z,100555.53
2023-03-21T09:26:02.951Z,100554.69
2023-03-21T09:29:12.735Z,100555.55
2023-03-21T09:32:22.563Z,100552.27
2023-03-21T09:35:30.880Z,100551.89
2023-03-21T09:38:38.438Z,100552.05
2023-03-21T09:42:22.156Z,100557.33
2023-03-21T09:45:48.277Z,100551.47
2023-03-21T09:49:04.790Z,100556.72
2023-03-21T09:52:12.335Z,100557.73
2023-03-21T09:55:21.314Z,100545.31
2023-03-21T09:58:47.766Z,100540.38
2023-03-21T10:01:55.962Z,100544.03
2023-03-21T10:05:07.528Z,100542.17
2023-03-21T10:08:21.276Z,100540.36
2023-03-21T10:11:39.146Z,100535.80
2023-03-21T10:14:57.720Z,100526.98
2023-03-21T10:18:16.339Z,100521.25
2023-03-21T10:21:43.377Z,100531.22
2023-03-21T10:24:38.144Z,100525.10
2023-03-21T10:27:45.090Z,100533.29
2023-03-21T10:31:15.797Z,100516.73
2023-03-21T10:34:32.846Z,100526.94
2023-03-21T10:37:38.677Z,100517.92
2023-03-21T10:40:44.788Z,100519.85
2023-03-21T10:43:52.790Z,100509.38
2023-03-21T10:47:09.064Z,100514.99
2023-03-21T10:50:23.319Z,100510.42
2023-03-21T10:53:42.136Z,100513.33
2023-03-21T10:56:51.370Z,100506.73
2023-03-21T11:00:17.528Z,100514.69
2023-03-21T11:03:41.960Z,100509.91
2023-03-21T11:06:54.817Z,100502.32
2023-03-21T11:10:12.337Z,100487.53
2023-03-21T11:13:23.150Z,100489.30
2023-03-21T11:16:42.888Z,100493.28
2023-03-21T11:19:51.044Z,100476.36
2023-03-21T11:22:58.694Z,100478.95
2023-03-21T11:26:04.871Z,100472.17
2023-03-21T11:29:12.318Z,100468.00
2023-03-21T11:32:48.557Z,100463.97
2023-03-21T11:35:54.200Z,100463.61
2023-03-21T11:39:15.954Z,100468.44
2023-03-21T11:42:43.538Z,100471.23
2023-03-21T11:45:52.261Z,100468.00
2023-03-21T11:49:02.098Z,100467.84
2023-03-21T11:52:16.645Z,100452.25
2023-03-21T11:55:42.400Z,100456.07
2023-03-21T11:59:20.010Z,100455.89
2023-03-21T12:02:45.095Z,100449.06
2023-03-21T12:05:57.695Z,100452.34
2023-03-21T12:09:17.572Z,100451.74
2023-03-21T12:12:49.462Z,100440.73
2023-03-21T12:16:29.247Z,100443.00
2023-03-21T12:20:05.518Z,100440.12
2023-03-21T12:23:24.712Z,100428.01
2023-03-21T12:27:01.133Z,100429.31
2023-03-21T12:30:40.400Z,100425.91
2023-03-21T12:34:03.228Z,100428.59
2023-03-21T12:37:32.045Z,100419.56
2023-03-21T12:41:10.990Z,100418.83
2023-03-21T12:44:27.304Z,100417.75
2023-03-21T12:47:40.679Z,100417.53
2023-03-21T12:50:51.196Z,100424.73
2023-03-21T12:54:08.996Z,100428.31
2023-03-21T12:57:32.056Z,100423.13
2023-03-21T13:01:04.289Z,100428.64
2023-03-21T13:04:44.705Z,100419.19
2023-03-21T13:07:56.041Z,100424.25
2023-03-21T13:11:04.737Z,100414.84
2023-03-21T13:14:16.031Z,100418.42
2023-03-21T13:17:40.153Z,100415.39
2023-03-21T13:21:05.839Z,100411.49
2023-03-21T13:24:19.229Z,100414.09
2023-03-21T13:27:47.847Z,100414.43
2023-03-21T13:30:53.850Z,100411.49
2023-03-21T13:34:06.283Z,100410.54
2023-03-21T13:37:12.205Z,100408.81
2023-03-21T13:40:21.122Z,100416.33
2023-03-21T13:43:59.862Z,100404.43
2023-03-21T13:47:17.613Z,100398.36
2023-03-21T13:50:43.126Z,100408.02
2023-03-21T13:53:54.210Z,100404.74
2023-03-21T13:57:04.161Z,100400.19
2023-03-21T14:00:38.478Z,100404.53
2023-03-21T14:03:47.416Z,100410.07
2023-03-21T14:07:01.484Z,100409.77
2023-03-21T14:10:08.752Z,100411.05
2023-03-21T14:13:17.443Z,100414.84
2023-03-21T14:16:32.584Z,100408.56
2023-03-21T14:19:49.294Z,100411.10
2023-03-21T14:22:56.983Z,100410.88
2023-03-21T14:26:02.641Z,100404.71
2023-03-21T14:29:22.812Z,100410.24
2023-03-21T14:32:16.289Z,100404.64
2023-03-21T14:35:25.851Z,100392.94
2023-03-21T14:38:38.417Z,100393.56
2023-03-21T14:41:49.224Z,100394.27
2023-03-21T14:44:57.198Z,100397.26
2023-03-21T14:48:24.884Z,100402.69
2023-03-21T14:51:31.298Z,100409.10
2023-03-21T14:54:38.307Z,100414.55
2023-03-21T14:57:46.603Z,100409.12
2023-03-21T15:00:51.753Z,100410.27
2023-03-21T15:04:00.945Z,100409.08
2023-03-21T15:07:15.130Z,100406.60
2023-03-21T15:10:29.944Z,100415.70
2023-03-21T15:13:38.175Z,100419.57
2023-03-21T15:16:44.769Z,100424.11
2023-03-21T15:19:53.061Z,100424.11
2023-03-21T15:23:05.352Z,100425.27
2023-03-21T15:26:11.682Z,100421.23
2023-03-21T15:29:21.556Z,100419.73
2023-03-21T15:32:35.212Z,100426.28
2023-03-21T15:35:49.238Z,100425.53
2023-03-21T15:38:56.259Z,100429.47
2023-03-21T15:42:35.648Z,100434.83
2023-03-21T15:45:43.054Z,100439.66
2023-03-21T15:48:51.126Z,100440.02
2023-03-21T15:51:58.636Z,100442.30
2023-03-21T15:55:09.479Z,100439.06
2023-03-21T15:58:19.767Z,100442.13
2023-03-21T16:01:37.676Z,100450.70
2023-03-21T16:04:45.150Z,100442.56
2023-03-21T16:07:52.228Z,100441.30
2023-03-21T16:10:57.605Z,100448.72
2023-03-21T16:14:03.516Z,100449.98
2023-03-21T16:17:13.284Z,100448.13
2023-03-21T16:20:36.020Z,100450.42
2023-03-21T16:23:42.818Z,100446.72
2023-03-21T16:26:52.494Z,100448.45
2023-03-21T16:29:58.339Z,100451.20
2023-03-21T16:33:04.311Z,100452.70
2023-03-21T16:36:14.768Z,100447.52
2023-03-21T16:39:32.734Z,100457.73
2023-03-21T16:42:37.876Z,100453.17
2023-03-21T16:45:44.906Z,100461.48
2023-03-21T16:48:51.083Z,100468.78
2023-03-21T16:51:59.187Z,100468.84
2023-03-21T16:55:06.444Z,100465.98
2023-03-21T16:58:13.080Z,100469.80
2023-03-21T17:01:20.326Z,100476.84
2023-03-21T17:04:26.764Z,100485.08
2023-03-21T17:07:34.004Z,100477.23
2023-03-21T17:10:44.278Z,100485.09
2023-03-21T17:13:49.182Z,100485.40
2023-03-21T17:16:55.087Z,100479.94
2023-03-21T17:20:03.043Z,100485.56
2023-03-21T17:23:09.970Z,100488.78
2023-03-21T17:26:17.764Z,100481.23
2023-03-21T17:29:31.105Z,100490.27
2023-03-21T17:32:37.459Z,100485.28
2023-03-21T17:35:44.293Z,100486.12
2023-03-21T17:38:49.967Z,100490.55
2023-03-21T17:41:55.492Z,100490.39
2023-03-21T17:45:05.411Z,100483.70
2023-03-21T17:48:11.242Z,100493.55
2023-03-21T17:51:21.381Z,100492.34
2023-03-21T17:54:27.001Z,100495.55
2023-03-21T17:57:34.319Z,100497.36
2023-03-21T18:00:44.010Z,100503.64
2023-03-21T18:03:51.489Z,100508.23
2023-03-21T18:06:58.607Z,100503.97
2023-03-21T18:10:06.490Z,100504.58
2023-03-21T18:13:12.312Z,100514.63
2023-03-21T18:16:18.215Z,100512.22
2023-03-21T18:19:26.602Z,100520.73
2023-03-21T18:22:32.276Z,100525.09
2023-03-21T18:25:38.787Z,100524.38
2023-03-21T18:29:34.229Z,100516.82
2023-03-21T18:32:05.889Z,100522.73
2023-03-21T18:35:06.062Z,100527.51
2023-03-21T18:38:13.707Z,100529.53
2023-03-21T18:41:21.995Z,100526.56
2023-03-21T18:44:29.173Z,100532.19
2023-03-21T18:47:36.769Z,100534.41
2023-03-21T18:50:43.833Z,100527.94
2023-03-21T18:53:49.095Z,100528.09
2023-03-21T18:57:34.983Z,100527.83
2023-03-21T19:00:08.124Z,100533.78
2023-03-21T19:03:26.938Z,100533.27
2023-03-21T19:06:24.381Z,100540.89
2023-03-21T19:09:32.333Z,100535.09
2023-03-21T19:12:39.596Z,100533.36
2023-03-21T19:15:49.408Z,100536.46
2023-03-21T19:18:56.857Z,100530.16
2023-03-21T19:22:02.180Z,100537.51
2023-03-21T19:25:08.031Z,100539.70
2023-03-21T19:28:16.312Z,100538.32
2023-03-21T19:31:24.512Z,100535.52
2023-03-21T19:34:35.142Z,100536.82
2023-03-21T19:37:43.489Z,100537.69
2023-03-21T19:40:50.806Z,100537.53
2023-03-21T19:43:56.674Z,100532.39
2023-03-21T19:47:06.006Z,100536.30
2023-03-21T19:51:00.194Z,100543.43
2023-03-21T19:53:21.296Z,100540.33
2023-03-21T19:56:28.056Z,100544.23
2023-03-21T19:59:35.646Z,100540.47
2023-03-21T20:02:43.133Z,100545.86
2023-03-21T20:05:49.404Z,100535.77
2023-03-21T20:12:05.466Z,100539.76
2023-03-21T20:15:17.683Z,100542.30
2023-03-21T20:18:20.715Z,100548.05
2023-03-21T20:21:34.058Z,100545.98
2023-03-21T20:24:37.725Z,100552.80
2023-03-21T20:27:44.907Z,100544.59
2023-03-21T20:30:52.709Z,100549.97
2023-03-21T20:34:02.685Z,100543.78
2023-03-21T20:37:08.021Z,100548.02
2023-03-21T20:40:15.443Z,100550.55
2023-03-21T20:44:13.960Z,100543.22
2023-03-21T20:46:27.774Z,100546.09
2023-03-21T20:49:35.900Z,100543.44
2023-03-21T20:53:01.136Z,100545.20
2023-03-21T20:55:52.572Z,100541.15
2023-03-21T20:59:15.291Z,100541.06
2023-03-21T21:02:10.547Z,100540.91
2023-03-21T21:05:29.503Z,100546.69
2023-03-21T21:08:27.735Z,100547.72
2023-03-21T21:12:06.160Z,100547.99
2023-03-21T21:14:45.353Z,100553.88
2023-03-21T21:18:08.581Z,100552.29
2023-03-21T21:21:00.623Z,100553.13
2023-03-21T21:24:14.558Z,100559.00
2023-03-21T21:27:21.060Z,100559.52
2023-03-21T21:30:29.391Z,100564.33
2023-03-21T21:33:41.405Z,100556.27
2023-03-21T21:36:47.906Z,100560.73
2023-03-21T21:39:53.365Z,100566.03
2023-03-21T21:42:59.209Z,100566.74
2023-03-21T21:46:06.852Z,100564.52
2023-03-21T21:49:13.778Z,100566.22
2023-03-21T21:52:20.951Z,100564.85
2023-03-21T21:55:27.230Z,100576.77
2023-03-21T21:58:34.065Z,100574.05
2023-03-21T22:01:46.756Z,100577.48
2023-03-21T22:04:52.696Z,100575.97
2023-03-21T22:08:00.801Z,100576.16
2023-03-21T22:11:06.204Z,100576.53
2023-03-21T22:14:10.948Z,100578.88
2023-03-21T22:17:18.555Z,100573.44
2023-03-21T22:20:24.978Z,100577.89
2023-03-21T22:23:32.791Z,100576.00
2023-03-21T22:26:40.868Z,100570.77
2023-03-21T22:29:48.148Z,100575.55
2023-03-21T22:33:08.517Z,100572.66
2023-03-21T22:36:06.663Z,100571.15
2023-03-21T22:39:13.817Z,100567.06
2023-03-21T22:42:21.153Z,100571.52
2023-03-21T22:45:28.011Z,100572.02
2023-03-21T22:48:36.579Z,100567.52
2023-03-21T22:51:42.403Z,100570.37
2023-03-21T22:54:48.498Z,100569.09
2023-03-21T22:57:55.002Z,100566.18
2023-03-21T23:01:00.818Z,100560.67
2023-03-21T23:04:06.790Z,100555.90
2023-03-21T23:07:12.166Z,100559.27
2023-03-21T23:10:19.457Z,100562.14
2023-03-21T23:13:25.829Z,100560.94
2023-03-21T23:16:32.218Z,100562.79
2023-03-21T23:19:41.003Z,100558.86
2023-03-21T23:22:46.960Z,100561.39
2023-03-21T23:25:54.097Z,100561.77
2023-03-21T23:29:02.048Z,100559.02
2023-03-21T23:32:07.726Z,100554.70
2023-03-21T23:35:14.820Z,100557.43
2023-03-21T23:38:20.929Z,100559.28
2023-03-21T23:41:31.664Z,100554.44
2023-03-21T23:44:37.637Z,100555.16
2023-03-21T23:47:44.611Z,100554.44
2023-03-21T23:50:51.009Z,100556.63
2023-03-21T23:53:55.775Z,100554.28
2023-03-21T23:57:01.215Z,100550.55
